sensor_id;sensor_type;location;lat;lon;timestamp;P1;durP1;ratioP1;P2;durP2;ratioP2
46643;SDS011;32371;51.032;5.816;2022-11-20T00:01:45;18.52;;;7.25;;
46643;SDS011;32371;51.032;5.816;2022-11-20T00:04:11;16.65;;;7.25;;
46643;SDS011;32371;51.032;5.816;2022-11-20T00:06:37;18.55;;;8.05;;
46643;SDS011;32371;51.032;5.816;2022-11-20T00:09:02;19.10;;;7.85;;
46643;SDS011;32371;51.032;5.816;2022-11-20T00:11:28;16.67;;;7.95;;
46643;SDS011;32371;51.032;5.816;2022-11-20T00:13:56;17.73;;;7.43;;
46643;SDS011;32371;51.032;5.816;2022-11-20T00:16:24;12.98;;;6.72;;
46643;SDS011;32371;51.032;5.816;2022-11-20T00:18:51;16.77;;;7.53;;
46643;SDS011;32371;51.032;5.816;2022-11-20T00:21:23;22.33;;;7.68;;
46643;SDS011;32371;51.032;5.816;2022-11-20T00:23:50;16.27;;;7.82;;
46643;SDS011;32371;51.032;5.816;2022-11-20T00:26:17;14.68;;;7.10;;
46643;SDS011;32371;51.032;5.816;2022-11-20T00:28:44;17.38;;;7.03;;
46643;SDS011;32371;51.032;5.816;2022-11-20T00:31:18;20.23;;;8.02;;
46643;SDS011;32371;51.032;5.816;2022-11-20T00:33:43;14.75;;;7.20;;
46643;SDS011;32371;51.032;5.816;2022-11-20T00:36:10;14.13;;;6.85;;
46643;SDS011;32371;51.032;5.816;2022-11-20T00:38:36;16.98;;;8.15;;
46643;SDS011;32371;51.032;5.816;2022-11-20T00:41:03;19.90;;;7.82;;
46643;SDS011;32371;51.032;5.816;2022-11-20T00:43:30;16.95;;;8.15;;
46643;SDS011;32371;51.032;5.816;2022-11-20T00:46:06;18.48;;;7.28;;
46643;SDS011;32371;51.032;5.816;2022-11-20T00:48:33;15.70;;;8.43;;
46643;SDS011;32371;51.032;5.816;2022-11-20T00:50:58;17.33;;;6.95;;
46643;SDS011;32371;51.032;5.816;2022-11-20T00:53:24;14.77;;;7.05;;
46643;SDS011;32371;51.032;5.816;2022-11-20T00:55:53;16.33;;;7.32;;
46643;SDS011;32371;51.032;5.816;2022-11-20T00:58:19;17.92;;;7.90;;
46643;SDS011;32371;51.032;5.816;2022-11-20T01:00:45;17.27;;;6.72;;
46643;SDS011;32371;51.032;5.816;2022-11-20T01:03:10;22.25;;;8.32;;
46643;SDS011;32371;51.032;5.816;2022-11-20T01:05:36;17.35;;;7.18;;
46643;SDS011;32371;51.032;5.816;2022-11-20T01:08:01;16.13;;;7.15;;
46643;SDS011;32371;51.032;5.816;2022-11-20T01:10:26;24.02;;;9.15;;
46643;SDS011;32371;51.032;5.816;2022-11-20T01:12:52;17.20;;;8.02;;
46643;SDS011;32371;51.032;5.816;2022-11-20T01:15:37;15.98;;;7.82;;
46643;SDS011;32371;51.032;5.816;2022-11-20T01:18:03;13.93;;;7.13;;
46643;SDS011;32371;51.032;5.816;2022-11-20T01:20:28;18.90;;;8.60;;
46643;SDS011;32371;51.032;5.816;2022-11-20T01:22:53;17.58;;;7.85;;
46643;SDS011;32371;51.032;5.816;2022-11-20T01:25:19;17.63;;;8.20;;
46643;SDS011;32371;51.032;5.816;2022-11-20T01:27:44;16.80;;;7.07;;
46643;SDS011;32371;51.032;5.816;2022-11-20T01:30:09;19.58;;;7.97;;
46643;SDS011;32371;51.032;5.816;2022-11-20T01:32:35;14.27;;;7.22;;
46643;SDS011;32371;51.032;5.816;2022-11-20T01:35:00;17.80;;;7.35;;
46643;SDS011;32371;51.032;5.816;2022-11-20T01:37:26;18.67;;;7.75;;
46643;SDS011;32371;51.032;5.816;2022-11-20T01:39:51;15.38;;;6.38;;
46643;SDS011;32371;51.032;5.816;2022-11-20T01:42:16;17.27;;;7.22;;
46643;SDS011;32371;51.032;5.816;2022-11-20T01:45:00;17.20;;;6.75;;
46643;SDS011;32371;51.032;5.816;2022-11-20T01:47:39;14.82;;;6.72;;
46643;SDS011;32371;51.032;5.816;2022-11-20T01:50:22;17.75;;;7.82;;
46643;SDS011;32371;51.032;5.816;2022-11-20T01:52:59;17.03;;;8.60;;
46643;SDS011;32371;51.032;5.816;2022-11-20T01:55:31;17.42;;;8.07;;
46643;SDS011;32371;51.032;5.816;2022-11-20T01:57:58;17.10;;;8.02;;
46643;SDS011;32371;51.032;5.816;2022-11-20T02:00:24;19.27;;;7.55;;
46643;SDS011;32371;51.032;5.816;2022-11-20T02:02:59;15.95;;;8.27;;
46643;SDS011;32371;51.032;5.816;2022-11-20T02:05:32;21.77;;;6.57;;
46643;SDS011;32371;51.032;5.816;2022-11-20T02:07:59;18.73;;;8.18;;
46643;SDS011;32371;51.032;5.816;2022-11-20T02:10:25;21.30;;;8.43;;
46643;SDS011;32371;51.032;5.816;2022-11-20T02:12:51;14.60;;;6.85;;
46643;SDS011;32371;51.032;5.816;2022-11-20T02:15:35;15.88;;;7.35;;
46643;SDS011;32371;51.032;5.816;2022-11-20T02:18:01;21.20;;;8.43;;
46643;SDS011;32371;51.032;5.816;2022-11-20T02:20:26;17.33;;;7.43;;
46643;SDS011;32371;51.032;5.816;2022-11-20T02:22:56;18.73;;;8.43;;
46643;SDS011;32371;51.032;5.816;2022-11-20T02:25:24;18.38;;;7.15;;
46643;SDS011;32371;51.032;5.816;2022-11-20T02:27:51;17.20;;;8.48;;
46643;SDS011;32371;51.032;5.816;2022-11-20T02:30:16;15.98;;;7.85;;
46643;SDS011;32371;51.032;5.816;2022-11-20T02:32:42;13.38;;;6.78;;
46643;SDS011;32371;51.032;5.816;2022-11-20T02:37:47;16.48;;;6.25;;
46643;SDS011;32371;51.032;5.816;2022-11-20T02:40:13;14.23;;;6.03;;
46643;SDS011;32371;51.032;5.816;2022-11-20T02:42:39;11.63;;;6.28;;
46643;SDS011;32371;51.032;5.816;2022-11-20T02:45:04;13.85;;;6.43;;
46643;SDS011;32371;51.032;5.816;2022-11-20T02:47:31;13.52;;;6.72;;
46643;SDS011;32371;51.032;5.816;2022-11-20T02:49:56;12.23;;;5.90;;
46643;SDS011;32371;51.032;5.816;2022-11-20T02:52:22;13.90;;;6.03;;
46643;SDS011;32371;51.032;5.816;2022-11-20T02:54:48;13.13;;;5.60;;
46643;SDS011;32371;51.032;5.816;2022-11-20T02:57:13;14.20;;;5.82;;
46643;SDS011;32371;51.032;5.816;2022-11-20T02:59:38;11.80;;;6.53;;
46643;SDS011;32371;51.032;5.816;2022-11-20T03:02:04;12.88;;;5.70;;
46643;SDS011;32371;51.032;5.816;2022-11-20T03:04:30;13.88;;;6.40;;
46643;SDS011;32371;51.032;5.816;2022-11-20T03:06:55;14.88;;;6.90;;
46643;SDS011;32371;51.032;5.816;2022-11-20T03:09:20;13.32;;;5.88;;
46643;SDS011;32371;51.032;5.816;2022-11-20T03:11:46;14.50;;;6.30;;
46643;SDS011;32371;51.032;5.816;2022-11-20T03:14:11;10.75;;;6.18;;
46643;SDS011;32371;51.032;5.816;2022-11-20T03:16:37;13.95;;;6.32;;
46643;SDS011;32371;51.032;5.816;2022-11-20T03:19:02;11.52;;;5.95;;
46643;SDS011;32371;51.032;5.816;2022-11-20T03:21:28;11.75;;;6.07;;
46643;SDS011;32371;51.032;5.816;2022-11-20T03:23:53;12.18;;;5.60;;
46643;SDS011;32371;51.032;5.816;2022-11-20T03:26:20;15.90;;;6.43;;
46643;SDS011;32371;51.032;5.816;2022-11-20T03:28:47;14.80;;;6.00;;
46643;SDS011;32371;51.032;5.816;2022-11-20T03:31:15;11.02;;;5.97;;
46643;SDS011;32371;51.032;5.816;2022-11-20T03:33:42;12.05;;;5.93;;
46643;SDS011;32371;51.032;5.816;2022-11-20T03:36:09;14.10;;;6.03;;
46643;SDS011;32371;51.032;5.816;2022-11-20T03:38:37;9.88;;;5.35;;
46643;SDS011;32371;51.032;5.816;2022-11-20T03:41:07;11.10;;;5.32;;
46643;SDS011;32371;51.032;5.816;2022-11-20T03:43:33;15.10;;;5.93;;
46643;SDS011;32371;51.032;5.816;2022-11-20T03:45:59;12.90;;;6.05;;
46643;SDS011;32371;51.032;5.816;2022-11-20T03:48:24;14.55;;;6.40;;
46643;SDS011;32371;51.032;5.816;2022-11-20T03:50:50;11.38;;;5.78;;
46643;SDS011;32371;51.032;5.816;2022-11-20T03:53:17;12.63;;;6.15;;
46643;SDS011;32371;51.032;5.816;2022-11-20T03:55:42;13.38;;;6.40;;
46643;SDS011;32371;51.032;5.816;2022-11-20T03:58:08;12.52;;;5.97;;
46643;SDS011;32371;51.032;5.816;2022-11-20T04:00:34;13.82;;;6.10;;
46643;SDS011;32371;51.032;5.816;2022-11-20T04:02:59;14.40;;;6.40;;
46643;SDS011;32371;51.032;5.816;2022-11-20T04:05:26;17.55;;;6.78;;
46643;SDS011;32371;51.032;5.816;2022-11-20T04:07:51;13.65;;;5.68;;
46643;SDS011;32371;51.032;5.816;2022-11-20T04:10:16;15.43;;;6.60;;
46643;SDS011;32371;51.032;5.816;2022-11-20T04:12:42;14.25;;;6.38;;
46643;SDS011;32371;51.032;5.816;2022-11-20T04:15:07;11.13;;;6.07;;
46643;SDS011;32371;51.032;5.816;2022-11-20T04:17:33;10.88;;;5.60;;
46643;SDS011;32371;51.032;5.816;2022-11-20T04:19:58;14.70;;;6.25;;
46643;SDS011;32371;51.032;5.816;2022-11-20T04:22:24;16.48;;;6.55;;
46643;SDS011;32371;51.032;5.816;2022-11-20T04:24:49;14.23;;;6.28;;
46643;SDS011;32371;51.032;5.816;2022-11-20T04:27:15;11.27;;;5.38;;
46643;SDS011;32371;51.032;5.816;2022-11-20T04:29:40;9.77;;;5.25;;
46643;SDS011;32371;51.032;5.816;2022-11-20T04:32:05;15.38;;;6.30;;
46643;SDS011;32371;51.032;5.816;2022-11-20T04:34:31;14.43;;;6.07;;
46643;SDS011;32371;51.032;5.816;2022-11-20T04:36:56;10.18;;;5.50;;
46643;SDS011;32371;51.032;5.816;2022-11-20T04:39:22;17.50;;;6.30;;
46643;SDS011;32371;51.032;5.816;2022-11-20T04:41:47;15.98;;;5.85;;
46643;SDS011;32371;51.032;5.816;2022-11-20T04:44:12;12.85;;;7.05;;
46643;SDS011;32371;51.032;5.816;2022-11-20T04:46:39;10.75;;;5.57;;
46643;SDS011;32371;51.032;5.816;2022-11-20T04:49:06;15.85;;;5.85;;
46643;SDS011;32371;51.032;5.816;2022-11-20T04:51:31;12.40;;;5.47;;
46643;SDS011;32371;51.032;5.816;2022-11-20T04:53:57;11.13;;;6.47;;
46643;SDS011;32371;51.032;5.816;2022-11-20T04:56:23;14.93;;;6.30;;
46643;SDS011;32371;51.032;5.816;2022-11-20T04:58:48;12.85;;;6.72;;
46643;SDS011;32371;51.032;5.816;2022-11-20T05:01:15;12.88;;;7.15;;
46643;SDS011;32371;51.032;5.816;2022-11-20T05:03:41;12.38;;;5.72;;
46643;SDS011;32371;51.032;5.816;2022-11-20T05:06:09;14.45;;;6.95;;
46643;SDS011;32371;51.032;5.816;2022-11-20T05:08:35;14.95;;;6.30;;
46643;SDS011;32371;51.032;5.816;2022-11-20T05:11:05;13.77;;;6.38;;
46643;SDS011;32371;51.032;5.816;2022-11-20T05:13:30;13.70;;;6.22;;
46643;SDS011;32371;51.032;5.816;2022-11-20T05:16:00;11.75;;;6.10;;
46643;SDS011;32371;51.032;5.816;2022-11-20T05:18:29;12.68;;;6.45;;
46643;SDS011;32371;51.032;5.816;2022-11-20T05:20:56;12.77;;;5.47;;
46643;SDS011;32371;51.032;5.816;2022-11-20T05:23:21;13.18;;;6.60;;
46643;SDS011;32371;51.032;5.816;2022-11-20T05:25:47;15.05;;;6.32;;
46643;SDS011;32371;51.032;5.816;2022-11-20T05:28:12;11.38;;;6.00;;
46643;SDS011;32371;51.032;5.816;2022-11-20T05:30:37;14.20;;;6.38;;
46643;SDS011;32371;51.032;5.816;2022-11-20T05:33:03;15.45;;;6.93;;
46643;SDS011;32371;51.032;5.816;2022-11-20T05:35:28;12.73;;;6.13;;
46643;SDS011;32371;51.032;5.816;2022-11-20T05:37:53;10.90;;;5.95;;
46643;SDS011;32371;51.032;5.816;2022-11-20T05:40:19;14.75;;;5.88;;
46643;SDS011;32371;51.032;5.816;2022-11-20T05:42:44;13.18;;;6.05;;
46643;SDS011;32371;51.032;5.816;2022-11-20T05:45:09;14.05;;;6.45;;
46643;SDS011;32371;51.032;5.816;2022-11-20T05:47:35;15.70;;;6.38;;
46643;SDS011;32371;51.032;5.816;2022-11-20T05:50:00;16.90;;;6.40;;
46643;SDS011;32371;51.032;5.816;2022-11-20T05:52:29;14.52;;;6.47;;
46643;SDS011;32371;51.032;5.816;2022-11-20T05:54:55;18.42;;;7.45;;
46643;SDS011;32371;51.032;5.816;2022-11-20T05:57:20;15.90;;;6.78;;
46643;SDS011;32371;51.032;5.816;2022-11-20T05:59:46;14.35;;;6.57;;
46643;SDS011;32371;51.032;5.816;2022-11-20T06:02:11;14.82;;;6.45;;
46643;SDS011;32371;51.032;5.816;2022-11-20T06:04:37;16.30;;;7.30;;
46643;SDS011;32371;51.032;5.816;2022-11-20T06:07:02;13.52;;;6.22;;
46643;SDS011;32371;51.032;5.816;2022-11-20T06:09:27;17.85;;;7.55;;
46643;SDS011;32371;51.032;5.816;2022-11-20T06:11:53;19.15;;;7.78;;
46643;SDS011;32371;51.032;5.816;2022-11-20T06:14:18;19.30;;;6.47;;
46643;SDS011;32371;51.032;5.816;2022-11-20T06:16:44;21.00;;;7.63;;
46643;SDS011;32371;51.032;5.816;2022-11-20T06:19:09;16.33;;;6.97;;
46643;SDS011;32371;51.032;5.816;2022-11-20T06:21:34;21.60;;;7.75;;
46643;SDS011;32371;51.032;5.816;2022-11-20T06:24:00;15.90;;;7.47;;
46643;SDS011;32371;51.032;5.816;2022-11-20T06:26:26;17.17;;;7.57;;
46643;SDS011;32371;51.032;5.816;2022-11-20T06:28:52;16.60;;;7.75;;
46643;SDS011;32371;51.032;5.816;2022-11-20T06:31:19;26.77;;;7.90;;
46643;SDS011;32371;51.032;5.816;2022-11-20T06:33:46;25.95;;;8.13;;
46643;SDS011;32371;51.032;5.816;2022-11-20T06:36:12;19.30;;;7.45;;
46643;SDS011;32371;51.032;5.816;2022-11-20T06:38:39;27.52;;;8.30;;
46643;SDS011;32371;51.032;5.816;2022-11-20T06:41:15;23.48;;;9.13;;
46643;SDS011;32371;51.032;5.816;2022-11-20T06:43:42;19.17;;;7.95;;
46643;SDS011;32371;51.032;5.816;2022-11-20T06:46:09;20.40;;;8.85;;
46643;SDS011;32371;51.032;5.816;2022-11-20T06:48:35;29.35;;;9.63;;
46643;SDS011;32371;51.032;5.816;2022-11-20T06:51:02;21.42;;;9.07;;
46643;SDS011;32371;51.032;5.816;2022-11-20T06:53:28;24.77;;;8.68;;
46643;SDS011;32371;51.032;5.816;2022-11-20T06:55:55;30.35;;;9.27;;
46643;SDS011;32371;51.032;5.816;2022-11-20T06:58:21;23.98;;;8.70;;
46643;SDS011;32371;51.032;5.816;2022-11-20T07:00:46;24.45;;;9.25;;
46643;SDS011;32371;51.032;5.816;2022-11-20T07:03:12;28.08;;;9.10;;
46643;SDS011;32371;51.032;5.816;2022-11-20T07:05:38;23.13;;;9.70;;
46643;SDS011;32371;51.032;5.816;2022-11-20T07:08:03;29.65;;;9.25;;
46643;SDS011;32371;51.032;5.816;2022-11-20T07:10:29;21.08;;;8.55;;
46643;SDS011;32371;51.032;5.816;2022-11-20T07:12:55;23.23;;;8.98;;
46643;SDS011;32371;51.032;5.816;2022-11-20T07:15:21;25.20;;;8.70;;
46643;SDS011;32371;51.032;5.816;2022-11-20T07:17:47;20.67;;;9.23;;
46643;SDS011;32371;51.032;5.816;2022-11-20T07:20:13;23.95;;;8.57;;
46643;SDS011;32371;51.032;5.816;2022-11-20T07:22:38;19.63;;;8.32;;
46643;SDS011;32371;51.032;5.816;2022-11-20T07:25:04;22.02;;;9.02;;
46643;SDS011;32371;51.032;5.816;2022-11-20T07:27:30;19.95;;;8.77;;
46643;SDS011;32371;51.032;5.816;2022-11-20T07:29:55;21.17;;;7.72;;
46643;SDS011;32371;51.032;5.816;2022-11-20T07:32:21;24.85;;;9.48;;
46643;SDS011;32371;51.032;5.816;2022-11-20T07:34:46;22.15;;;8.45;;
46643;SDS011;32371;51.032;5.816;2022-11-20T07:37:12;21.10;;;7.82;;
46643;SDS011;32371;51.032;5.816;2022-11-20T07:39:38;21.23;;;7.45;;
46643;SDS011;32371;51.032;5.816;2022-11-20T07:42:03;21.50;;;8.52;;
46643;SDS011;32371;51.032;5.816;2022-11-20T07:44:29;22.30;;;7.68;;
46643;SDS011;32371;51.032;5.816;2022-11-20T07:46:54;14.05;;;7.03;;
46643;SDS011;32371;51.032;5.816;2022-11-20T07:49:19;24.58;;;8.18;;
46643;SDS011;32371;51.032;5.816;2022-11-20T07:51:45;18.05;;;7.47;;
46643;SDS011;32371;51.032;5.816;2022-11-20T07:54:10;23.60;;;8.75;;
46643;SDS011;32371;51.032;5.816;2022-11-20T07:56:35;24.73;;;6.95;;
46643;SDS011;32371;51.032;5.816;2022-11-20T07:59:01;19.23;;;7.55;;
46643;SDS011;32371;51.032;5.816;2022-11-20T08:01:26;17.45;;;6.75;;
46643;SDS011;32371;51.032;5.816;2022-11-20T08:03:51;23.52;;;8.43;;
46643;SDS011;32371;51.032;5.816;2022-11-20T08:06:17;19.52;;;7.63;;
46643;SDS011;32371;51.032;5.816;2022-11-20T08:08:44;17.92;;;8.25;;
46643;SDS011;32371;51.032;5.816;2022-11-20T08:11:09;17.95;;;7.85;;
46643;SDS011;32371;51.032;5.816;2022-11-20T08:13:53;24.92;;;8.30;;
46643;SDS011;32371;51.032;5.816;2022-11-20T08:16:41;17.65;;;7.85;;
46643;SDS011;32371;51.032;5.816;2022-11-20T08:19:14;20.88;;;7.97;;
46643;SDS011;32371;51.032;5.816;2022-11-20T08:21:40;23.10;;;10.02;;
46643;SDS011;32371;51.032;5.816;2022-11-20T08:24:06;23.40;;;9.55;;
46643;SDS011;32371;51.032;5.816;2022-11-20T08:26:32;26.25;;;9.07;;
46643;SDS011;32371;51.032;5.816;2022-11-20T08:28:58;21.05;;;8.88;;
46643;SDS011;32371;51.032;5.816;2022-11-20T08:31:24;20.73;;;7.88;;
46643;SDS011;32371;51.032;5.816;2022-11-20T08:33:51;20.92;;;7.82;;
46643;SDS011;32371;51.032;5.816;2022-11-20T08:36:16;13.60;;;6.82;;
46643;SDS011;32371;51.032;5.816;2022-11-20T08:38:46;14.57;;;7.53;;
46643;SDS011;32371;51.032;5.816;2022-11-20T08:41:12;19.63;;;9.05;;
46643;SDS011;32371;51.032;5.816;2022-11-20T08:43:51;19.58;;;7.60;;
46643;SDS011;32371;51.032;5.816;2022-11-20T08:46:24;17.52;;;7.93;;
46643;SDS011;32371;51.032;5.816;2022-11-20T08:48:50;19.95;;;8.23;;
46643;SDS011;32371;51.032;5.816;2022-11-20T08:51:16;18.67;;;7.85;;
46643;SDS011;32371;51.032;5.816;2022-11-20T08:53:42;21.42;;;8.82;;
46643;SDS011;32371;51.032;5.816;2022-11-20T08:56:08;29.65;;;9.43;;
46643;SDS011;32371;51.032;5.816;2022-11-20T08:58:35;18.58;;;7.47;;
46643;SDS011;32371;51.032;5.816;2022-11-20T09:01:01;17.83;;;8.18;;
46643;SDS011;32371;51.032;5.816;2022-11-20T09:03:26;24.13;;;7.90;;
46643;SDS011;32371;51.032;5.816;2022-11-20T09:06:03;19.95;;;8.65;;
46643;SDS011;32371;51.032;5.816;2022-11-20T09:08:30;16.40;;;7.18;;
46643;SDS011;32371;51.032;5.816;2022-11-20T09:10:56;17.17;;;6.90;;
46643;SDS011;32371;51.032;5.816;2022-11-20T09:13:22;25.83;;;8.10;;
46643;SDS011;32371;51.032;5.816;2022-11-20T09:15:55;27.25;;;8.90;;
46643;SDS011;32371;51.032;5.816;2022-11-20T09:18:21;25.40;;;8.45;;
46643;SDS011;32371;51.032;5.816;2022-11-20T09:20:47;23.75;;;9.55;;
46643;SDS011;32371;51.032;5.816;2022-11-20T09:23:13;21.92;;;9.40;;
46643;SDS011;32371;51.032;5.816;2022-11-20T09:25:39;17.45;;;8.32;;
46643;SDS011;32371;51.032;5.816;2022-11-20T09:28:04;22.77;;;9.65;;
46643;SDS011;32371;51.032;5.816;2022-11-20T09:30:30;23.10;;;8.10;;
46643;SDS011;32371;51.032;5.816;2022-11-20T09:32:55;19.20;;;8.95;;
46643;SDS011;32371;51.032;5.816;2022-11-20T09:35:21;24.55;;;9.38;;
46643;SDS011;32371;51.032;5.816;2022-11-20T09:37:46;25.30;;;9.63;;
46643;SDS011;32371;51.032;5.816;2022-11-20T09:40:19;25.00;;;9.25;;
46643;SDS011;32371;51.032;5.816;2022-11-20T09:50:45;24.55;;;9.40;;
46643;SDS011;32371;51.032;5.816;2022-11-20T09:55:59;20.98;;;9.02;;
46643;SDS011;32371;51.032;5.816;2022-11-20T09:58:33;27.27;;;9.85;;
46643;SDS011;32371;51.032;5.816;2022-11-20T10:01:09;26.70;;;10.30;;
46643;SDS011;32371;51.032;5.816;2022-11-20T10:04:16;23.58;;;8.95;;
46643;SDS011;32371;51.032;5.816;2022-11-20T10:06:47;28.52;;;9.57;;
46643;SDS011;32371;51.032;5.816;2022-11-20T10:09:34;26.90;;;8.95;;
46643;SDS011;32371;51.032;5.816;2022-11-20T10:12:06;29.10;;;10.38;;
46643;SDS011;32371;51.032;5.816;2022-11-20T10:14:44;27.25;;;12.05;;
46643;SDS011;32371;51.032;5.816;2022-11-20T10:22:58;22.85;;;9.00;;
46643;SDS011;32371;51.032;5.816;2022-11-20T10:25:30;24.10;;;9.45;;
46643;SDS011;32371;51.032;5.816;2022-11-20T10:28:06;25.15;;;8.73;;
46643;SDS011;32371;51.032;5.816;2022-11-20T10:30:43;24.30;;;10.02;;
46643;SDS011;32371;51.032;5.816;2022-11-20T10:33:22;23.90;;;9.73;;
46643;SDS011;32371;51.032;5.816;2022-11-20T10:40:50;29.05;;;9.23;;
46643;SDS011;32371;51.032;5.816;2022-11-20T10:43:40;20.25;;;8.65;;
46643;SDS011;32371;51.032;5.816;2022-11-20T10:46:10;21.80;;;8.02;;
46643;SDS011;32371;51.032;5.816;2022-11-20T10:48:39;32.10;;;10.13;;
46643;SDS011;32371;51.032;5.816;2022-11-20T10:59:33;22.40;;;9.73;;
46643;SDS011;32371;51.032;5.816;2022-11-20T11:02:14;21.17;;;9.82;;
46643;SDS011;32371;51.032;5.816;2022-11-20T11:04:48;19.58;;;8.95;;
46643;SDS011;32371;51.032;5.816;2022-11-20T11:09:55;28.38;;;10.00;;
46643;SDS011;32371;51.032;5.816;2022-11-20T11:12:22;29.08;;;9.75;;
46643;SDS011;32371;51.032;5.816;2022-11-20T11:14:53;23.15;;;9.55;;
46643;SDS011;32371;51.032;5.816;2022-11-20T11:19:58;27.80;;;11.10;;
46643;SDS011;32371;51.032;5.816;2022-11-20T11:22:24;29.75;;;10.60;;
46643;SDS011;32371;51.032;5.816;2022-11-20T11:24:52;25.27;;;9.95;;
46643;SDS011;32371;51.032;5.816;2022-11-20T11:27:18;28.35;;;9.20;;
46643;SDS011;32371;51.032;5.816;2022-11-20T11:29:43;33.70;;;10.63;;
46643;SDS011;32371;51.032;5.816;2022-11-20T11:34:58;30.15;;;10.82;;
46643;SDS011;32371;51.032;5.816;2022-11-20T11:37:27;27.05;;;9.57;;
46643;SDS011;32371;51.032;5.816;2022-11-20T11:40:00;26.52;;;10.50;;
46643;SDS011;32371;51.032;5.816;2022-11-20T11:42:26;24.13;;;10.23;;
46643;SDS011;32371;51.032;5.816;2022-11-20T11:44:53;23.90;;;8.80;;
46643;SDS011;32371;51.032;5.816;2022-11-20T11:47:33;28.20;;;9.68;;
46643;SDS011;32371;51.032;5.816;2022-11-20T11:50:02;29.55;;;10.23;;
46643;SDS011;32371;51.032;5.816;2022-11-20T11:52:48;23.40;;;9.60;;
46643;SDS011;32371;51.032;5.816;2022-11-20T11:58:46;30.52;;;9.40;;
46643;SDS011;32371;51.032;5.816;2022-11-20T12:03:50;32.30;;;10.00;;
46643;SDS011;32371;51.032;5.816;2022-11-20T12:06:20;35.45;;;10.80;;
46643;SDS011;32371;51.032;5.816;2022-11-20T12:08:50;25.23;;;10.75;;
46643;SDS011;32371;51.032;5.816;2022-11-20T12:14:01;27.17;;;9.82;;
46643;SDS011;32371;51.032;5.816;2022-11-20T12:16:30;33.30;;;11.05;;
46643;SDS011;32371;51.032;5.816;2022-11-20T12:19:00;29.10;;;10.63;;
46643;SDS011;32371;51.032;5.816;2022-11-20T12:39:49;24.95;;;9.80;;
46643;SDS011;32371;51.032;5.816;2022-11-20T12:42:21;31.23;;;9.20;;
46643;SDS011;32371;51.032;5.816;2022-11-20T12:53:37;27.50;;;9.18;;
46643;SDS011;32371;51.032;5.816;2022-11-20T13:01:28;24.48;;;9.27;;
46643;SDS011;32371;51.032;5.816;2022-11-20T13:06:56;23.30;;;9.40;;
46643;SDS011;32371;51.032;5.816;2022-11-20T13:09:22;21.80;;;9.25;;
46643;SDS011;32371;51.032;5.816;2022-11-20T13:11:51;28.30;;;10.05;;
46643;SDS011;32371;51.032;5.816;2022-11-20T13:17:14;26.63;;;8.13;;
46643;SDS011;32371;51.032;5.816;2022-11-20T13:19:52;18.95;;;7.57;;
46643;SDS011;32371;51.032;5.816;2022-11-20T13:22:28;22.30;;;8.93;;
46643;SDS011;32371;51.032;5.816;2022-11-20T13:25:21;16.10;;;7.00;;
46643;SDS011;32371;51.032;5.816;2022-11-20T13:27:50;21.92;;;7.03;;
46643;SDS011;32371;51.032;5.816;2022-11-20T13:30:17;23.23;;;7.80;;
46643;SDS011;32371;51.032;5.816;2022-11-20T13:32:51;20.13;;;7.53;;
46643;SDS011;32371;51.032;5.816;2022-11-20T13:35:25;15.43;;;6.70;;
46643;SDS011;32371;51.032;5.816;2022-11-20T13:40:26;5.88;;;3.17;;
46643;SDS011;32371;51.032;5.816;2022-11-20T13:42:56;6.93;;;3.28;;
46643;SDS011;32371;51.032;5.816;2022-11-20T13:45:28;4.63;;;2.50;;
46643;SDS011;32371;51.032;5.816;2022-11-20T13:47:55;8.43;;;2.90;;
46643;SDS011;32371;51.032;5.816;2022-11-20T13:50:26;7.47;;;2.65;;
46643;SDS011;32371;51.032;5.816;2022-11-20T13:55:47;6.95;;;2.33;;
46643;SDS011;32371;51.032;5.816;2022-11-20T14:00:46;4.68;;;1.67;;
46643;SDS011;32371;51.032;5.816;2022-11-20T14:03:19;5.00;;;1.38;;
46643;SDS011;32371;51.032;5.816;2022-11-20T14:05:56;5.78;;;1.58;;
46643;SDS011;32371;51.032;5.816;2022-11-20T14:08:39;3.30;;;1.25;;
46643;SDS011;32371;51.032;5.816;2022-11-20T14:11:18;1.77;;;1.10;;
46643;SDS011;32371;51.032;5.816;2022-11-20T14:13:52;2.28;;;0.70;;
46643;SDS011;32371;51.032;5.816;2022-11-20T14:16:29;1.65;;;0.88;;
46643;SDS011;32371;51.032;5.816;2022-11-20T14:18:56;2.03;;;0.70;;
46643;SDS011;32371;51.032;5.816;2022-11-20T14:21:26;1.33;;;0.55;;
46643;SDS011;32371;51.032;5.816;2022-11-20T14:24:09;1.57;;;0.70;;
46643;SDS011;32371;51.032;5.816;2022-11-20T14:26:36;1.27;;;0.45;;
46643;SDS011;32371;51.032;5.816;2022-11-20T14:29:02;1.13;;;0.63;;
46643;SDS011;32371;51.032;5.816;2022-11-20T14:31:28;1.13;;;0.70;;
46643;SDS011;32371;51.032;5.816;2022-11-20T14:33:53;3.40;;;0.60;;
46643;SDS011;32371;51.032;5.816;2022-11-20T14:36:22;1.08;;;0.50;;
46643;SDS011;32371;51.032;5.816;2022-11-20T14:38:49;1.02;;;0.30;;
46643;SDS011;32371;51.032;5.816;2022-11-20T14:41:17;0.93;;;0.52;;
46643;SDS011;32371;51.032;5.816;2022-11-20T14:43:47;1.02;;;0.57;;
46643;SDS011;32371;51.032;5.816;2022-11-20T14:46:16;1.27;;;0.77;;
46643;SDS011;32371;51.032;5.816;2022-11-20T14:48:49;4.38;;;0.82;;
46643;SDS011;32371;51.032;5.816;2022-11-20T14:51:32;4.45;;;1.02;;
46643;SDS011;32371;51.032;5.816;2022-11-20T14:56:35;2.58;;;0.65;;
46643;SDS011;32371;51.032;5.816;2022-11-20T14:59:00;2.97;;;0.52;;
46643;SDS011;32371;51.032;5.816;2022-11-20T15:01:27;2.53;;;0.70;;
46643;SDS011;32371;51.032;5.816;2022-11-20T15:04:00;1.77;;;1.13;;
46643;SDS011;32371;51.032;5.816;2022-11-20T15:06:34;1.35;;;0.77;;
46643;SDS011;32371;51.032;5.816;2022-11-20T15:08:59;2.40;;;1.15;;
46643;SDS011;32371;51.032;5.816;2022-11-20T15:11:32;2.78;;;0.90;;
46643;SDS011;32371;51.032;5.816;2022-11-20T15:14:03;1.48;;;0.98;;
46643;SDS011;32371;51.032;5.816;2022-11-20T15:16:30;4.90;;;1.40;;
46643;SDS011;32371;51.032;5.816;2022-11-20T15:18:56;5.35;;;1.00;;
46643;SDS011;32371;51.032;5.816;2022-11-20T15:21:21;2.75;;;1.13;;
46643;SDS011;32371;51.032;5.816;2022-11-20T15:23:47;4.00;;;1.52;;
46643;SDS011;32371;51.032;5.816;2022-11-20T15:26:13;0.60;;;0.60;;
46643;SDS011;32371;51.032;5.816;2022-11-20T15:28:41;1.73;;;0.85;;
46643;SDS011;32371;51.032;5.816;2022-11-20T15:31:11;2.17;;;1.00;;
46643;SDS011;32371;51.032;5.816;2022-11-20T15:33:37;3.05;;;1.20;;
46643;SDS011;32371;51.032;5.816;2022-11-20T15:36:03;3.03;;;1.58;;
46643;SDS011;32371;51.032;5.816;2022-11-20T15:38:29;5.43;;;2.42;;
46643;SDS011;32371;51.032;5.816;2022-11-20T15:40:54;1.65;;;1.55;;
46643;SDS011;32371;51.032;5.816;2022-11-20T15:43:19;1.15;;;1.08;;
46643;SDS011;32371;51.032;5.816;2022-11-20T15:45:45;2.17;;;1.38;;
46643;SDS011;32371;51.032;5.816;2022-11-20T15:48:17;7.25;;;1.70;;
46643;SDS011;32371;51.032;5.816;2022-11-20T15:50:55;1.65;;;0.95;;
46643;SDS011;32371;51.032;5.816;2022-11-20T15:53:23;2.28;;;1.13;;
46643;SDS011;32371;51.032;5.816;2022-11-20T15:55:48;4.93;;;1.67;;
46643;SDS011;32371;51.032;5.816;2022-11-20T15:58:14;1.40;;;1.15;;
46643;SDS011;32371;51.032;5.816;2022-11-20T16:00:41;1.80;;;1.02;;
46643;SDS011;32371;51.032;5.816;2022-11-20T16:03:09;4.80;;;1.73;;
46643;SDS011;32371;51.032;5.816;2022-11-20T16:05:35;2.75;;;1.63;;
46643;SDS011;32371;51.032;5.816;2022-11-20T16:08:01;2.15;;;1.08;;
46643;SDS011;32371;51.032;5.816;2022-11-20T16:10:26;3.08;;;1.88;;
46643;SDS011;32371;51.032;5.816;2022-11-20T16:12:52;2.10;;;1.40;;
46643;SDS011;32371;51.032;5.816;2022-11-20T16:15:35;1.48;;;1.23;;
46643;SDS011;32371;51.032;5.816;2022-11-20T16:18:10;2.58;;;1.25;;
46643;SDS011;32371;51.032;5.816;2022-11-20T16:20:36;1.75;;;1.35;;